createdAt,value
2023-03-06T00:00:46.728Z,2.21
2023-03-06T00:03:14.404Z,2.23
2023-03-06T00:05:41.430Z,2.20
2023-03-06T00:08:10.216Z,2.18
2023-03-06T00:10:38.479Z,2.14
2023-03-06T00:13:07.077Z,2.14
2023-03-06T00:15:34.377Z,2.17
2023-03-06T00:18:04.140Z,2.25
2023-03-06T00:20:31.110Z,2.34
2023-03-06T00:22:58.487Z,2.38
2023-03-06T00:25:26.894Z,2.44
2023-03-06T00:27:53.850Z,2.46
2023-03-06T00:30:23.869Z,2.50
2023-03-06T00:32:55.149Z,2.51
2023-03-06T00:35:24.312Z,2.49
2023-03-06T00:37:52.045Z,2.52
2023-03-06T00:43:05.096Z,2.48
2023-03-06T00:45:33.744Z,2.52
2023-03-06T00:48:02.010Z,2.49
2023-03-06T00:50:29.564Z,2.52
2023-03-06T00:53:02.706Z,2.49
2023-03-06T00:55:44.407Z,2.50
2023-03-06T00:58:13.670Z,2.50
2023-03-06T01:00:44.479Z,2.51
2023-03-06T01:03:11.933Z,2.50
2023-03-06T01:05:39.174Z,2.55
2023-03-06T01:08:12.426Z,2.57
2023-03-06T01:10:40.346Z,2.57
2023-03-06T01:13:07.325Z,2.60
2023-03-06T01:15:36.932Z,2.55
2023-03-06T01:18:05.666Z,2.56
2023-03-06T01:20:32.627Z,2.58
2023-03-06T01:22:59.605Z,2.63
2023-03-06T01:25:28.281Z,2.60
2023-03-06T01:27:57.047Z,2.66
2023-03-06T01:30:24.750Z,2.67
2023-03-06T01:32:54.353Z,2.61
2023-03-06T01:35:23.669Z,2.64
2023-03-06T01:37:52.142Z,2.66
2023-03-06T01:40:21.956Z,2.76
2023-03-06T01:42:50.500Z,2.70
2023-03-06T01:46:00.181Z,2.68
2023-03-06T01:48:28.747Z,2.59
2023-03-06T01:50:56.150Z,2.61
2023-03-06T01:53:24.410Z,2.63
2023-03-06T01:55:52.195Z,2.61
2023-03-06T01:58:19.649Z,2.61
2023-03-06T02:00:47.878Z,2.61
2023-03-06T02:03:17.228Z,2.60
2023-03-06T02:05:45.876Z,2.56
2023-03-06T02:08:15.541Z,2.55
2023-03-06T02:10:43.486Z,2.53
2023-03-06T02:13:10.714Z,2.53
2023-03-06T02:15:38.196Z,2.49
2023-03-06T02:18:05.701Z,2.50
2023-03-06T02:20:38.032Z,2.49
2023-03-06T02:23:10.420Z,2.52
2023-03-06T02:25:41.610Z,2.49
2023-03-06T02:28:11.174Z,2.41
2023-03-06T02:30:44.788Z,2.39
2023-03-06T02:33:13.616Z,2.36
2023-03-06T02:35:41.415Z,2.38
2023-03-06T02:38:10.451Z,2.40
2023-03-06T02:40:37.194Z,2.37
2023-03-06T02:43:05.596Z,2.34
2023-03-06T02:45:36.050Z,2.33
2023-03-06T02:48:03.189Z,2.38
2023-03-06T02:50:30.395Z,2.32
2023-03-06T02:52:57.365Z,2.32
2023-03-06T02:55:25.336Z,2.38
2023-03-06T02:57:56.296Z,2.31
2023-03-06T03:00:25.677Z,2.29
2023-03-06T03:02:53.217Z,2.13
2023-03-06T03:05:20.491Z,2.12
2023-03-06T03:07:53.329Z,2.08
2023-03-06T03:10:21.360Z,2.07
2023-03-06T03:12:48.874Z,2.07
2023-03-06T03:15:16.868Z,2.06
2023-03-06T03:17:45.523Z,2.03
2023-03-06T03:20:14.846Z,1.89
2023-03-06T03:22:42.342Z,1.81
2023-03-06T03:25:09.941Z,1.86
2023-03-06T03:27:37.321Z,1.83
2023-03-06T03:30:06.246Z,1.79
2023-03-06T03:32:33.361Z,1.79
2023-03-06T03:35:03.025Z,1.74
2023-03-06T03:37:30.196Z,1.80
2023-03-06T03:39:59.232Z,1.78
2023-03-06T03:42:26.342Z,1.75
2023-03-06T03:44:54.190Z,1.80
2023-03-06T03:47:22.207Z,1.84
2023-03-06T03:49:50.355Z,1.84
2023-03-06T03:52:21.166Z,1.73
2023-03-06T03:54:48.179Z,1.56
2023-03-06T03:57:15.399Z,1.45
2023-03-06T03:59:47.964Z,1.40
2023-03-06T04:02:23.860Z,1.38
2023-03-06T04:05:10.382Z,1.43
2023-03-06T04:07:38.998Z,1.52
2023-03-06T04:10:07.436Z,1.55
2023-03-06T04:12:36.002Z,1.51
2023-03-06T04:15:04.373Z,1.53
2023-03-06T04:17:34.153Z,1.42
2023-03-06T04:20:03.026Z,1.39
2023-03-06T04:22:31.255Z,1.44
2023-03-06T04:25:00.159Z,1.46
2023-03-06T04:27:27.206Z,1.46
2023-03-06T04:29:56.600Z,1.26
2023-03-06T04:32:25.385Z,1.10
2023-03-06T04:34:52.516Z,1.09
2023-03-06T04:37:21.409Z,1.11
2023-03-06T04:39:48.934Z,1.19
2023-03-06T04:42:17.671Z,1.17
2023-03-06T04:44:44.814Z,1.26
2023-03-06T04:47:12.174Z,1.35
2023-03-06T04:49:40.834Z,1.45
2023-03-06T04:52:08.134Z,1.51
2023-03-06T04:54:35.062Z,1.47
2023-03-06T04:57:02.065Z,1.52
2023-03-06T04:59:30.415Z,1.56
2023-03-06T05:01:58.174Z,1.59
2023-03-06T05:04:25.648Z,1.62
2023-03-06T05:06:52.909Z,1.70
2023-03-06T05:09:19.905Z,1.77
2023-03-06T05:11:46.919Z,1.79
2023-03-06T05:14:14.382Z,1.85
2023-03-06T05:16:42.966Z,1.91
2023-03-06T05:19:09.818Z,1.97
2023-03-06T05:21:37.405Z,1.99
2023-03-06T05:24:05.364Z,2.04
2023-03-06T05:26:32.976Z,2.08
2023-03-06T05:29:00.109Z,2.15
2023-03-06T05:31:28.963Z,2.12
2023-03-06T05:33:57.983Z,2.17
2023-03-06T05:36:25.263Z,2.16
2023-03-06T05:38:54.461Z,2.17
2023-03-06T05:41:21.798Z,2.24
2023-03-06T05:43:48.861Z,2.20
2023-03-06T05:46:15.885Z,2.24
2023-03-06T05:48:51.735Z,2.31
2023-03-06T05:51:20.151Z,2.38
2023-03-06T05:53:47.133Z,2.42
2023-03-06T05:56:14.585Z,2.45
2023-03-06T05:58:42.694Z,2.50
2023-03-06T06:01:10.725Z,2.55
2023-03-06T06:03:38.635Z,2.66
2023-03-06T06:06:07.778Z,2.72
2023-03-06T06:08:36.107Z,2.85
2023-03-06T06:11:04.800Z,2.92
2023-03-06T06:13:32.250Z,3.05
2023-03-06T06:16:00.418Z,3.13
2023-03-06T06:18:27.912Z,3.12
2023-03-06T06:20:56.016Z,3.23
2023-03-06T06:23:23.199Z,3.26
2023-03-06T06:25:51.626Z,3.35
2023-03-06T06:28:18.563Z,3.44
2023-03-06T06:30:46.566Z,3.49
2023-03-06T06:33:14.624Z,3.55
2023-03-06T06:35:43.520Z,3.46
2023-03-06T06:38:10.444Z,3.55
2023-03-06T06:40:37.853Z,3.49
2023-03-06T06:43:06.264Z,3.44
2023-03-06T06:45:33.449Z,3.55
2023-03-06T06:48:00.417Z,3.53
2023-03-06T06:50:27.410Z,3.60
2023-03-06T06:52:55.020Z,3.68
2023-03-06T06:55:22.481Z,3.82
2023-03-06T06:57:49.482Z,3.87
2023-03-06T07:00:19.464Z,3.98
2023-03-06T07:02:49.320Z,4.07
2023-03-06T07:05:16.881Z,4.15
2023-03-06T07:07:44.980Z,4.17
2023-03-06T07:10:14.348Z,4.21
2023-03-06T07:12:41.442Z,4.28
2023-03-06T07:15:09.302Z,4.52
2023-03-06T07:17:38.083Z,4.60
2023-03-06T07:20:07.286Z,4.84
2023-03-06T07:22:48.658Z,4.99
2023-03-06T07:25:17.915Z,5.09
2023-03-06T07:27:51.056Z,5.32
2023-03-06T07:30:20.201Z,5.49
2023-03-06T07:32:49.209Z,5.60
2023-03-06T07:35:20.347Z,5.59
2023-03-06T07:37:47.959Z,5.57
2023-03-06T07:40:14.985Z,5.85
2023-03-06T07:42:42.211Z,6.06
2023-03-06T07:45:13.324Z,6.12
2023-03-06T07:47:40.783Z,6.35
2023-03-06T07:50:10.296Z,6.51
2023-03-06T07:52:37.184Z,6.59
2023-03-06T07:55:04.946Z,6.65
2023-03-06T07:57:31.900Z,6.85
2023-03-06T08:00:06.034Z,7.20
2023-03-06T08:02:40.345Z,7.49
2023-03-06T08:05:12.702Z,7.72
2023-03-06T08:07:40.756Z,7.94
2023-03-06T08:10:08.464Z,8.12
2023-03-06T08:12:37.240Z,8.28
2023-03-06T08:15:06.424Z,8.49
2023-03-06T08:17:33.345Z,8.62
2023-03-06T08:20:00.864Z,8.55
2023-03-06T08:22:31.963Z,8.82
2023-03-06T08:25:01.281Z,9.08
2023-03-06T08:27:28.552Z,9.20
2023-03-06T08:29:55.568Z,9.38
2023-03-06T08:32:24.880Z,9.37
2023-03-06T08:34:52.973Z,9.62
2023-03-06T08:37:20.269Z,9.82
2023-03-06T08:39:55.241Z,10.15
2023-03-06T08:42:23.137Z,10.35
2023-03-06T08:44:50.672Z,10.56
2023-03-06T08:47:18.192Z,10.73
2023-03-06T08:49:45.796Z,10.84
2023-03-06T08:52:12.780Z,11.04
2023-03-06T08:54:39.793Z,11.27
2023-03-06T08:57:09.450Z,11.46
2023-03-06T08:59:37.866Z,11.53
2023-03-06T09:02:06.751Z,11.57
2023-03-06T09:04:34.445Z,11.84
2023-03-06T09:07:01.883Z,11.45
2023-03-06T09:09:29.851Z,11.78
2023-03-06T09:11:59.292Z,12.10
2023-03-06T09:14:28.005Z,12.11
2023-03-06T09:16:55.083Z,12.25
2023-03-06T09:19:22.379Z,12.26
2023-03-06T09:21:50.089Z,11.75
2023-03-06T09:24:17.690Z,11.82
2023-03-06T09:26:46.733Z,12.32
2023-03-06T09:29:16.603Z,12.77
2023-03-06T09:31:46.152Z,12.96
2023-03-06T09:34:13.190Z,13.18
2023-03-06T09:36:55.336Z,13.50
2023-03-06T09:39:25.234Z,13.87
2023-03-06T09:41:55.099Z,13.89
2023-03-06T09:44:23.754Z,14.24
2023-03-06T09:47:24.857Z,14.71
2023-03-06T09:50:14.520Z,14.86
2023-03-06T09:52:46.257Z,14.79
2023-03-06T09:55:17.162Z,14.61
2023-03-06T09:58:08.320Z,15.00
2023-03-06T10:00:38.736Z,15.10
2023-03-06T10:03:17.843Z,15.51
2023-03-06T10:05:47.539Z,15.57
2023-03-06T10:08:31.098Z,15.22
2023-03-06T10:11:01.979Z,15.81
2023-03-06T10:13:35.884Z,15.64
2023-03-06T10:16:08.834Z,15.59
2023-03-06T10:18:39.084Z,15.41
2023-03-06T10:21:20.326Z,15.60
2023-03-06T10:23:53.716Z,16.10
2023-03-06T10:26:23.430Z,16.45
2023-03-06T10:28:57.970Z,16.77
2023-03-06T10:31:25.284Z,17.13
2023-03-06T10:33:56.593Z,17.18
2023-03-06T10:36:30.085Z,17.36
2023-03-06T10:39:01.561Z,17.73
2023-03-06T10:41:30.719Z,18.04
2023-03-06T10:44:23.827Z,17.94
2023-03-06T10:46:53.233Z,18.19
2023-03-06T10:49:42.716Z,18.41
2023-03-06T10:52:21.776Z,18.51
2023-03-06T10:54:48.910Z,18.24
2023-03-06T10:57:24.144Z,18.26
2023-03-06T11:00:06.419Z,18.59
2023-03-06T11:02:36.853Z,18.79
2023-03-06T11:05:19.706Z,18.93
2023-03-06T11:07:54.895Z,19.24
2023-03-06T11:10:23.369Z,19.24
2023-03-06T11:12:57.590Z,17.88
2023-03-06T11:15:25.265Z,17.37
2023-03-06T11:18:01.134Z,17.63
2023-03-06T11:20:48.506Z,18.10
2023-03-06T11:23:19.284Z,18.45
2023-03-06T11:25:48.942Z,18.13
2023-03-06T11:28:20.673Z,18.21
2023-03-06T11:30:49.444Z,17.71
2023-03-06T11:33:22.340Z,17.73
2023-03-06T11:35:56.266Z,18.06
2023-03-06T11:38:32.698Z,18.90
2023-03-06T11:41:01.407Z,19.00
2023-03-06T11:43:34.267Z,18.57
2023-03-06T11:46:06.661Z,18.95
2023-03-06T11:48:37.015Z,19.28
2023-03-06T11:51:11.974Z,19.59
2023-03-06T11:53:40.252Z,19.66
2023-03-06T11:56:22.967Z,19.36
2023-03-06T11:58:57.229Z,19.44
2023-03-06T12:01:28.576Z,19.95
2023-03-06T12:04:43.767Z,20.06
2023-03-06T12:07:29.363Z,20.47
2023-03-06T12:10:02.533Z,20.51
2023-03-06T12:12:45.648Z,20.51
2023-03-06T12:15:23.010Z,19.29
2023-03-06T12:18:03.927Z,18.57
2023-03-06T12:20:41.639Z,18.37
2023-03-06T12:23:22.167Z,18.98
2023-03-06T12:25:52.074Z,19.13
2023-03-06T12:28:40.255Z,18.78
2023-03-06T12:31:18.018Z,17.58
2023-03-06T12:33:51.953Z,16.73
2023-03-06T12:36:29.034Z,16.40
2023-03-06T12:39:09.211Z,16.48
2023-03-06T12:41:56.869Z,16.08
2023-03-06T12:44:51.560Z,15.73
2023-03-06T12:47:22.464Z,15.39
2023-03-06T12:49:53.800Z,14.79
2023-03-06T12:52:29.603Z,15.06
2023-03-06T12:54:59.320Z,15.21
2023-03-06T12:57:26.927Z,15.39
2023-03-06T12:59:54.978Z,15.41
2023-03-06T13:02:58.086Z,14.80
2023-03-06T13:05:49.585Z,14.56
2023-03-06T13:08:46.598Z,14.25
2023-03-06T13:11:37.451Z,15.00
2023-03-06T13:14:22.181Z,15.19
2023-03-06T13:16:49.376Z,15.21
2023-03-06T13:19:19.131Z,15.18
2023-03-06T13:22:26.657Z,14.51
2023-03-06T13:25:28.982Z,14.70
2023-03-06T13:28:04.865Z,14.74
2023-03-06T13:30:52.962Z,14.27
2023-03-06T13:33:52.367Z,14.67
2023-03-06T13:36:28.181Z,14.87
2023-03-06T13:39:06.270Z,15.16
2023-03-06T13:41:56.409Z,15.25
2023-03-06T13:44:51.068Z,14.72
2023-03-06T13:48:02.855Z,14.82
2023-03-06T13:50:37.901Z,15.09
2023-03-06T13:53:28.741Z,14.76
2023-03-06T13:56:05.167Z,14.61
2023-03-06T13:58:44.368Z,14.21
2023-03-06T14:01:22.415Z,13.76
2023-03-06T14:04:17.059Z,13.41
2023-03-06T14:06:51.507Z,13.15
2023-03-06T14:09:26.795Z,13.15
2023-03-06T14:11:58.394Z,12.92
2023-03-06T14:14:33.284Z,12.75
2023-03-06T14:17:04.844Z,12.76
2023-03-06T14:19:37.567Z,12.56
2023-03-06T14:22:06.041Z,12.48
2023-03-06T14:24:36.660Z,12.55
2023-03-06T14:27:04.103Z,12.54
2023-03-06T14:29:33.216Z,12.66
2023-03-06T14:32:06.084Z,12.57
2023-03-06T14:34:37.665Z,12.47
2023-03-06T14:37:07.896Z,12.45
2023-03-06T14:39:37.808Z,12.19
2023-03-06T14:42:06.224Z,11.80
2023-03-06T14:44:33.002Z,11.64
2023-03-06T14:47:28.638Z,11.47
2023-03-06T14:50:24.129Z,11.41
2023-03-06T14:52:54.060Z,11.40
2023-03-06T14:55:23.841Z,11.41
2023-03-06T14:57:59.365Z,11.37
2023-03-06T15:00:32.240Z,11.16
2023-03-06T15:03:02.357Z,11.12
2023-03-06T15:05:30.225Z,11.07
2023-03-06T15:07:59.675Z,10.90
2023-03-06T15:10:30.209Z,10.83
2023-03-06T15:13:08.813Z,10.72
2023-03-06T15:15:36.109Z,10.70
2023-03-06T15:18:28.914Z,10.68
2023-03-06T15:21:06.859Z,10.63
2023-03-06T15:23:39.018Z,10.70
2023-03-06T15:26:23.968Z,10.81
2023-03-06T15:29:08.228Z,10.89
2023-03-06T15:31:36.747Z,10.81
2023-03-06T15:34:25.155Z,10.80
2023-03-06T15:36:54.959Z,10.80
2023-03-06T15:39:33.963Z,10.76
2023-03-06T15:42:05.127Z,10.62
2023-03-06T15:44:33.227Z,10.64
2023-03-06T15:47:08.410Z,10.59
2023-03-06T15:49:39.273Z,10.52
2023-03-06T15:52:06.658Z,10.38
2023-03-06T15:54:33.719Z,10.41
2023-03-06T15:57:01.057Z,10.52
2023-03-06T15:59:33.377Z,10.51
2023-03-06T16:02:04.048Z,10.53
2023-03-06T16:04:31.060Z,10.52
2023-03-06T16:06:59.465Z,10.41
2023-03-06T16:09:27.061Z,10.39
2023-03-06T16:11:59.457Z,10.32
2023-03-06T16:14:36.965Z,10.34
2023-03-06T16:17:04.228Z,10.33
2023-03-06T16:19:33.447Z,10.35
2023-03-06T16:22:01.905Z,10.42
2023-03-06T16:24:30.526Z,10.41
2023-03-06T16:26:59.645Z,10.25
2023-03-06T16:29:30.638Z,10.16
2023-03-06T16:32:03.388Z,10.12
2023-03-06T16:35:11.817Z,10.00
2023-03-06T16:37:50.620Z,9.94
2023-03-06T16:40:23.155Z,9.78
2023-03-06T16:42:53.993Z,9.68
2023-03-06T16:45:21.443Z,9.54
2023-03-06T16:47:48.993Z,9.51
2023-03-06T16:50:22.770Z,9.50
2023-03-06T16:52:52.263Z,9.41
2023-03-06T16:55:19.894Z,9.37
2023-03-06T16:57:47.347Z,9.36
2023-03-06T17:00:15.996Z,9.41
2023-03-06T17:02:44.043Z,9.39
2023-03-06T17:05:12.066Z,9.29
2023-03-06T17:07:39.837Z,9.21
2023-03-06T17:10:11.197Z,9.17
2023-03-06T17:12:38.307Z,9.11
2023-03-06T17:15:07.784Z,9.07
2023-03-06T17:17:36.073Z,9.09
2023-03-06T17:20:04.121Z,9.11
2023-03-06T17:22:33.717Z,9.14
2023-03-06T17:25:00.799Z,9.14
2023-03-06T17:27:29.827Z,9.14
2023-03-06T17:30:02.039Z,9.18
2023-03-06T17:32:29.941Z,9.22
2023-03-06T17:34:57.167Z,9.24
2023-03-06T17:37:25.701Z,9.17
2023-03-06T17:39:52.819Z,9.12
2023-03-06T17:42:21.503Z,9.00
2023-03-06T17:44:51.085Z,8.91
2023-03-06T17:47:19.968Z,8.88
2023-03-06T17:49:47.025Z,8.86
2023-03-06T17:52:13.988Z,8.89
2023-03-06T17:54:41.331Z,8.89
2023-03-06T17:57:10.124Z,8.84
2023-03-06T17:59:37.582Z,8.87
2023-03-06T18:02:07.032Z,8.84
2023-03-06T18:04:35.373Z,8.80
2023-03-06T18:07:02.394Z,8.78
2023-03-06T18:09:29.488Z,8.79
2023-03-06T18:11:56.674Z,8.77
2023-03-06T18:14:25.179Z,8.85
2023-03-06T18:16:52.453Z,8.90
2023-03-06T18:19:21.982Z,8.89
2023-03-06T18:21:49.464Z,8.89
2023-03-06T18:24:16.499Z,8.91
2023-03-06T18:26:44.247Z,8.91
2023-03-06T18:29:11.336Z,8.91
2023-03-06T18:31:42.349Z,8.92
2023-03-06T18:34:11.205Z,8.81
2023-03-06T18:36:40.402Z,8.78
2023-03-06T18:39:09.685Z,8.78
2023-03-06T18:41:37.574Z,8.75
2023-03-06T18:44:05.188Z,8.76
2023-03-06T18:46:33.761Z,8.83
2023-03-06T18:49:00.793Z,8.80
2023-03-06T18:51:29.953Z,8.73
2023-03-06T18:54:00.173Z,8.63
2023-03-06T18:56:38.110Z,8.64
2023-03-06T18:59:06.565Z,8.65
2023-03-06T19:01:34.600Z,8.79
2023-03-06T19:04:03.861Z,8.73
2023-03-06T19:06:31.711Z,8.74
2023-03-06T19:09:04.985Z,8.76
2023-03-06T19:11:32.521Z,8.80
2023-03-06T19:14:01.680Z,8.88
2023-03-06T19:16:30.308Z,8.89
2023-03-06T19:18:57.971Z,8.91
2023-03-06T19:21:26.980Z,8.94
2023-03-06T19:23:57.516Z,8.89
2023-03-06T19:26:28.117Z,8.89
2023-03-06T19:28:57.125Z,8.90
2023-03-06T19:31:27.111Z,8.92
2023-03-06T19:34:02.311Z,8.93
2023-03-06T19:36:33.689Z,8.89
2023-03-06T19:39:04.116Z,8.85
2023-03-06T19:41:33.391Z,8.84
2023-03-06T19:44:09.901Z,8.83
2023-03-06T19:46:41.526Z,8.85
2023-03-06T19:49:13.649Z,8.90
2023-03-06T19:51:40.758Z,8.91
2023-03-06T19:54:07.999Z,8.92
2023-03-06T19:56:36.779Z,8.90
2023-03-06T19:59:05.085Z,8.87
2023-03-06T20:01:34.296Z,8.86
2023-03-06T20:04:01.662Z,8.86
2023-03-06T20:06:30.342Z,8.88
2023-03-06T20:08:57.106Z,8.83
2023-03-06T20:11:25.860Z,8.76
2023-03-06T20:13:54.374Z,8.79
2023-03-06T20:16:21.394Z,8.76
2023-03-06T20:18:49.802Z,8.74
2023-03-06T20:21:16.874Z,8.71
2023-03-06T20:23:44.108Z,8.70
2023-03-06T20:26:13.321Z,8.68
2023-03-06T20:28:41.658Z,8.68
2023-03-06T20:31:11.255Z,8.64
2023-03-06T20:33:41.622Z,8.68
2023-03-06T20:36:12.298Z,8.69
2023-03-06T20:38:40.566Z,8.71
2023-03-06T20:41:08.920Z,8.69
2023-03-06T20:43:35.942Z,8.69
2023-03-06T20:46:06.013Z,8.68
2023-03-06T20:48:38.513Z,8.66
2023-03-06T20:51:07.639Z,8.68
2023-03-06T20:53:37.741Z,8.69
2023-03-06T20:56:05.572Z,8.69
2023-03-06T20:58:32.717Z,8.70
2023-03-06T21:01:02.294Z,8.72
2023-03-06T21:03:29.794Z,8.74
2023-03-06T21:05:58.355Z,8.73
2023-03-06T21:08:25.387Z,8.69
2023-03-06T21:10:52.345Z,8.66
2023-03-06T21:13:19.846Z,8.62
2023-03-06T21:15:48.063Z,8.62
2023-03-06T21:18:15.592Z,8.58
2023-03-06T21:20:44.419Z,8.60
2023-03-06T21:23:12.802Z,8.61
2023-03-06T21:25:46.646Z,8.61
2023-03-06T21:28:16.652Z,8.56
2023-03-06T21:30:43.998Z,8.55
2023-03-06T21:33:12.829Z,8.58
2023-03-06T21:35:41.016Z,8.61
2023-03-06T21:38:08.221Z,8.65
2023-03-06T21:40:36.970Z,8.65
2023-03-06T21:43:04.326Z,8.72
2023-03-06T21:45:31.515Z,8.73
2023-03-06T21:47:58.952Z,8.75
2023-03-06T21:50:26.778Z,8.72
2023-03-06T21:52:54.216Z,8.79
2023-03-06T21:55:21.610Z,8.83
2023-03-06T21:57:51.522Z,8.82
2023-03-06T22:00:19.702Z,8.81
2023-03-06T22:02:47.813Z,8.83
2023-03-06T22:05:14.905Z,8.83
2023-03-06T22:07:42.670Z,8.87
2023-03-06T22:10:15.665Z,8.90
2023-03-06T22:12:42.994Z,8.89
2023-03-06T22:15:12.170Z,8.88
2023-03-06T22:17:41.654Z,8.93
2023-03-06T22:20:10.239Z,8.95
2023-03-06T22:22:37.292Z,8.94
2023-03-06T22:25:05.088Z,8.97
2023-03-06T22:27:32.046Z,8.95
2023-03-06T22:30:00.426Z,8.92
2023-03-06T22:32:28.780Z,8.91
2023-03-06T22:34:55.743Z,8.85
2023-03-06T22:37:22.796Z,8.89
2023-03-06T22:39:49.712Z,8.93
2023-03-06T22:42:16.624Z,8.94
2023-03-06T22:44:44.246Z,8.92
2023-03-06T22:47:11.314Z,8.96
2023-03-06T22:49:41.425Z,8.98
2023-03-06T22:52:09.077Z,8.99
2023-03-06T22:54:36.233Z,8.96
2023-03-06T22:57:03.151Z,8.96
2023-03-06T22:59:30.174Z,9.02
2023-03-06T23:01:57.407Z,9.02
2023-03-06T23:04:26.514Z,9.04
2023-03-06T23:06:56.361Z,9.04
2023-03-06T23:09:23.246Z,9.09
2023-03-06T23:12:11.560Z,9.11
2023-03-06T23:14:57.409Z,9.04
2023-03-06T23:17:43.471Z,9.07
2023-03-06T23:20:29.030Z,9.01
2023-03-06T23:23:16.343Z,8.92
2023-03-06T23:25:43.954Z,8.67
2023-03-06T23:28:12.008Z,8.61
2023-03-06T23:30:39.488Z,8.51
2023-03-06T23:33:06.823Z,8.52
2023-03-06T23:35:34.336Z,8.45
2023-03-06T23:38:03.082Z,8.40
2023-03-06T23:40:33.512Z,8.09
2023-03-06T23:43:00.590Z,7.81
2023-03-06T23:45:28.019Z,7.67
2023-03-06T23:47:54.980Z,7.66
2023-03-06T23:50:23.123Z,7.62
2023-03-06T23:52:51.699Z,7.63
2023-03-06T23:55:19.186Z,7.56
2023-03-06T23:57:47.695Z,7.49
